Time;durP1;ratioP1;P1;durP2;ratioP2;P2;SDS_P1;SDS_P2;PMS_P1;PMS_P2;Temp;Humidity;BMP_temperature;BMP_pressure;BME280_temperature;BME280_humidity;BME280_pressure;Samples;Min_cycle;Max_cycle;Signal;HPM_P1;HPM_P2
2023/06/06 00:01:25;;;;;;;2.30;2.10;;;;;;;-144.30;69.25;85462.03;5113793;28;20194;-50
2023/06/06 00:03:52;;;;;;;1.77;1.67;;;;;;;-144.30;69.99;85420.28;5114022;28;20195;-50
2023/06/06 00:06:21;;;;;;;4.00;2.20;;;;;;;-144.30;70.37;85456.06;5113978;28;20660;-49
2023/06/06 00:08:50;;;;;;;5.33;2.00;;;;;;;-144.30;70.53;85450.09;5114126;28;20194;-50
2023/06/06 00:11:17;;;;;;;2.80;2.10;;;;;;;-144.30;71.18;85444.16;5113676;28;20194;-49
2023/06/06 00:13:44;;;;;;;2.47;1.80;;;;;;;-144.30;71.23;85487.88;5113637;28;20290;-50
2023/06/06 00:16:12;;;;;;;5.47;1.90;;;;;;;-144.30;71.92;85491.84;5113698;28;20507;-51
2023/06/06 00:18:41;;;;;;;3.53;1.97;;;;;;;-144.30;71.81;85440.16;5113419;28;20324;-50
2023/06/06 00:21:09;;;;;;;5.47;1.90;;;;;;;-144.30;72.22;85458.06;5113478;28;20437;-58
2023/06/06 00:23:36;;;;;;;2.00;1.90;;;;;;;-144.30;72.39;85448.13;5113413;28;20205;-51
2023/06/06 00:26:03;;;;;;;7.67;2.13;;;;;;;-144.30;72.44;85483.91;5113390;28;20194;-48
2023/06/06 00:28:30;;;;;;;6.27;2.57;;;;;;;-144.30;72.59;85462.03;5113451;28;20209;-51
2023/06/06 00:30:57;;;;;;;1.83;1.73;;;;;;;-144.30;72.85;85475.94;5113365;28;20209;-50
2023/06/06 00:33:24;;;;;;;2.93;1.80;;;;;;;-144.30;73.16;85452.09;5113345;28;20202;-50
2023/06/06 00:35:52;;;;;;;1.93;1.77;;;;;;;-144.30;73.54;85438.19;5113217;28;20222;-51
2023/06/06 00:38:19;;;;;;;4.20;2.30;;;;;;;-144.30;74.17;85464.03;5113129;28;20217;-49
2023/06/06 00:40:46;;;;;;;2.97;2.23;;;;;;;-144.30;74.70;85481.91;5113169;28;20229;-50
2023/06/06 00:43:12;;;;;;;4.57;2.07;;;;;;;-144.30;74.91;85464.03;5112979;28;20205;-50
2023/06/06 00:45:39;;;;;;;2.50;2.30;;;;;;;-144.30;74.77;85509.75;5112920;28;20209;-51
2023/06/06 00:48:07;;;;;;;2.23;2.03;;;;;;;-144.30;74.90;85452.09;5111642;28;20237;-50
2023/06/06 00:50:34;;;;;;;2.13;1.80;;;;;;;-144.30;74.96;85483.91;5112245;28;20588;-56
2023/06/06 00:53:03;;;;;;;4.00;1.80;;;;;;;-144.30;75.60;85481.91;5111814;28;20201;-58
2023/06/06 00:55:32;;;;;;;2.07;1.90;;;;;;;-144.30;75.85;85493.84;5111449;28;20203;-57
2023/06/06 00:58:00;;;;;;;2.30;1.97;;;;;;;-144.30;76.28;85479.94;5111712;28;20226;-58
2023/06/06 01:00:32;;;;;;;5.07;3.30;;;;;;;-144.30;76.72;85511.75;5111602;28;20675;-58
2023/06/06 01:03:00;;;;;;;4.87;1.67;;;;;;;-144.30;77.12;85495.84;5112047;28;20209;-57
2023/06/06 01:05:27;;;;;;;1.90;1.80;;;;;;;-144.30;78.18;85471.97;5111678;28;20632;-57
2023/06/06 01:07:54;;;;;;;2.57;2.20;;;;;;;-144.30;78.47;85495.84;5111607;28;20197;-56
2023/06/06 01:10:23;;;;;;;2.93;2.10;;;;;;;-144.30;78.28;85481.91;5111400;28;20190;-57
2023/06/06 01:13:02;;;;;;;2.27;2.07;;;;;;;-144.30;78.70;85470.00;5111716;28;20682;-57
2023/06/06 01:15:36;;;;;;;3.10;2.10;;;;;;;-144.30;78.45;85511.75;5111231;28;20201;-57
2023/06/06 01:18:04;;;;;;;6.07;2.57;;;;;;;-144.30;78.71;85519.69;5111168;28;20283;-57
2023/06/06 01:20:33;;;;;;;9.27;2.87;;;;;;;-144.30;79.01;85497.81;5111598;28;20666;-57
2023/06/06 01:23:02;;;;;;;5.10;2.47;;;;;;;-144.30;79.66;85511.75;5111537;28;20198;-56
2023/06/06 01:25:29;;;;;;;6.17;1.97;;;;;;;-144.30;79.51;85380.53;5111272;28;20301;-57
2023/06/06 01:27:56;;;;;;;2.57;2.10;;;;;;;-144.30;80.17;85503.78;5111294;28;20245;-50
2023/06/06 01:30:26;;;;;;;4.00;2.03;;;;;;;-144.30;80.72;85511.75;5111123;28;20720;-50
2023/06/06 01:33:04;;;;;;;4.87;2.40;;;;;;;-144.30;81.10;85515.72;5111129;28;20206;-51
2023/06/06 01:35:39;;;;;;;6.33;2.60;;;;;;;-144.30;81.75;85507.75;5111219;28;20698;-51
2023/06/06 01:38:10;;;;;;;2.90;2.33;;;;;;;-144.30;81.19;85450.09;5111034;28;20583;-51
2023/06/06 01:40:38;;;;;;;4.93;2.20;;;;;;;-144.30;81.48;85821.88;5111199;28;20202;-51
2023/06/06 01:43:10;;;;;;;4.10;2.17;;;;;;;-144.30;81.40;85487.88;5110867;28;20634;-50
2023/06/06 01:45:39;;;;;;;2.90;2.40;;;;;;;-144.30;81.83;85440.16;5111274;28;20202;-49
2023/06/06 01:48:07;;;;;;;5.37;2.83;;;;;;;-144.30;81.90;85497.81;5069411;28;1191910;-51
2023/06/06 01:50:34;;;;;;;5.87;2.70;;;;;;;-144.30;81.94;85515.72;5111493;28;20195;-50
2023/06/06 01:53:01;;;;;;;2.87;2.63;;;;;;;-144.30;82.02;85485.88;5111804;28;20633;-50
2023/06/06 01:55:29;;;;;;;3.40;2.97;;;;;;;-144.30;81.72;85523.66;5111590;28;20196;-50
2023/06/06 01:57:57;;;;;;;3.90;2.90;;;;;;;-144.30;81.67;85539.56;5111915;28;20218;-49
2023/06/06 02:00:24;;;;;;;3.23;2.90;;;;;;;-144.30;81.33;85392.47;5111411;28;20197;-51
2023/06/06 02:02:51;;;;;;;5.47;2.40;;;;;;;-144.30;81.89;85503.78;5111531;28;20191;-50
2023/06/06 02:05:19;;;;;;;4.10;2.27;;;;;;;-144.30;82.07;85483.91;5111381;28;20601;-56
2023/06/06 02:07:46;;;;;;;3.60;2.50;;;;;;;-144.30;82.30;85515.72;5110626;28;20216;-56
2023/06/06 02:10:13;;;;;;;4.30;2.37;;;;;;;-144.30;82.26;85458.06;5111155;28;20217;-57
2023/06/06 02:12:41;;;;;;;5.60;2.83;;;;;;;-144.30;82.74;85521.69;5111539;28;20577;-57
2023/06/06 02:15:10;;;;;;;3.40;2.53;;;;;;;-144.30;82.98;85507.75;5111296;28;20197;-57
2023/06/06 02:17:37;;;;;;;6.13;2.90;;;;;;;-144.30;83.32;85519.69;5111079;28;20600;-57
2023/06/06 02:20:06;;;;;;;6.00;2.50;;;;;;;-144.30;83.68;85567.41;5111058;28;20631;-57
2023/06/06 02:22:33;;;;;;;6.57;2.50;;;;;;;-144.30;84.17;85527.63;5111093;28;20194;-57
2023/06/06 02:25:03;;;;;;;2.87;2.27;;;;;;;-144.30;83.38;85517.69;5110953;28;20201;-57
2023/06/06 02:27:30;;;;;;;3.60;2.40;;;;;;;-144.30;83.33;85515.72;5110986;28;20245;-57
2023/06/06 02:29:58;;;;;;;4.70;2.70;;;;;;;-144.30;84.02;85519.69;5111142;28;20209;-57
2023/06/06 02:32:25;;;;;;;6.77;2.50;;;;;;;-144.30;84.65;85513.72;5110761;28;20237;-57
2023/06/06 02:34:52;;;;;;;3.73;2.80;;;;;;;-144.30;84.98;85531.63;5110851;28;20198;-57
2023/06/06 02:37:19;;;;;;;4.07;2.80;;;;;;;-144.30;85.68;85501.78;5110694;28;20218;-57
2023/06/06 02:39:46;;;;;;;4.77;2.30;;;;;;;-144.30;86.42;85541.56;5111263;27;20195;-49
2023/06/06 02:42:13;;;;;;;2.67;2.47;;;;;;;-144.30;86.88;85531.63;5111209;28;20690;-51
2023/06/06 02:44:40;;;;;;;3.53;2.47;;;;;;;-144.30;86.67;85545.53;5111069;28;20198;-51
2023/06/06 02:47:09;;;;;;;2.57;2.37;;;;;;;-144.30;86.62;85529.63;5110441;28;20230;-50
2023/06/06 02:49:35;;;;;;;4.67;2.90;;;;;;;-144.30;86.98;85559.44;5110803;28;20206;-50
2023/06/06 02:52:02;;;;;;;3.30;3.00;;;;;;;-144.30;87.08;85585.28;5110636;28;20205;-50
2023/06/06 02:54:29;;;;;;;5.53;2.20;;;;;;;-144.30;86.94;85519.69;5110861;28;20195;-49
2023/06/06 02:56:56;;;;;;;8.53;2.93;;;;;;;-144.30;86.86;85559.44;5110809;28;20612;-49
2023/06/06 02:59:23;;;;;;;5.97;2.77;;;;;;;-144.30;87.58;85545.53;5110814;28;20577;-50
2023/06/06 03:01:50;;;;;;;3.20;2.30;;;;;;;-144.30;87.55;85547.53;5110448;28;20693;-50
2023/06/06 03:04:18;;;;;;;2.77;2.57;;;;;;;-144.30;87.82;85559.44;5110611;28;20751;-51
2023/06/06 03:06:48;;;;;;;9.77;2.80;;;;;;;-144.30;88.40;85555.47;5110640;28;20210;-50
2023/06/06 03:09:15;;;;;;;6.50;2.60;;;;;;;-144.30;88.78;85531.63;5110830;28;20198;-52
2023/06/06 03:11:41;;;;;;;7.83;2.53;;;;;;;-144.30;88.36;85531.63;5110739;28;20226;-51
2023/06/06 03:14:09;;;;;;;10.73;2.70;;;;;;;-144.30;88.35;85481.91;5110409;28;20197;-51
2023/06/06 03:16:35;;;;;;;4.50;2.50;;;;;;;-144.30;88.16;85537.59;5110350;28;20694;-50
2023/06/06 03:19:03;;;;;;;7.97;2.63;;;;;;;-144.30;87.95;85551.50;5110169;28;20194;-56
2023/06/06 03:21:33;;;;;;;4.47;2.63;;;;;;;-144.30;88.02;85567.41;5110445;28;20198;-57
2023/06/06 03:24:00;;;;;;;6.97;2.93;;;;;;;-144.30;87.94;85501.78;5110496;28;20591;-57
2023/06/06 03:26:27;;;;;;;6.20;2.50;;;;;;;-144.30;88.00;85535.59;5110275;28;20195;-56
2023/06/06 03:28:56;;;;;;;5.77;2.70;;;;;;;-144.30;87.63;85523.66;5110422;28;20685;-57
2023/06/06 03:31:23;;;;;;;5.10;3.00;;;;;;;-144.30;86.75;85493.84;5110020;28;20198;-56
2023/06/06 03:33:50;;;;;;;4.90;3.17;;;;;;;-144.30;86.52;85487.88;5110271;28;20203;-56
2023/06/06 03:36:17;;;;;;;4.70;2.90;;;;;;;-144.30;86.04;85497.81;5110536;28;20671;-57
2023/06/06 03:38:46;;;;;;;4.37;2.47;;;;;;;-144.30;85.47;85483.91;5110337;28;20219;-57
2023/06/06 03:41:12;;;;;;;2.70;2.43;;;;;;;-144.30;84.58;85493.84;5109901;28;20213;-57
2023/06/06 03:43:39;;;;;;;3.20;2.63;;;;;;;-144.30;83.94;85436.19;5110199;28;20204;-57
2023/06/06 03:46:06;;;;;;;5.40;2.90;;;;;;;-144.30;83.07;85378.53;5109759;28;20198;-55
2023/06/06 03:48:33;;;;;;;3.80;2.33;;;;;;;-144.30;82.32;85406.38;5110235;28;20190;-56
2023/06/06 03:51:00;;;;;;;3.50;3.20;;;;;;;-144.30;79.82;85277.16;5110114;28;20190;-57
2023/06/06 03:53:27;;;;;;;5.73;2.60;;;;;;;-144.30;74.10;85132.03;5109814;28;20198;-57
2023/06/06 03:55:59;;;;;;;8.77;2.42;;;;;;;-144.30;68.28;84953.16;5110122;28;20590;-56
2023/06/06 03:58:26;;;;;;;5.25;2.30;;;;;;;-144.30;61.11;84790.16;5109793;28;20218;-57
2023/06/06 04:00:53;;;;;;;3.28;2.50;;;;;;;-144.30;56.17;84625.19;5109701;28;20657;-57
2023/06/06 04:03:20;;;;;;;2.78;2.53;;;;;;;-144.30;52.85;84472.16;5109864;28;20209;-57
2023/06/06 04:05:48;;;;;;;2.67;2.38;;;;;;;-144.30;50.55;84368.81;5110123;28;20650;-57
2023/06/06 04:08:15;;;;;;;5.47;2.67;;;;;;;-144.30;48.21;84263.50;5109906;28;20201;-57
2023/06/06 04:10:42;;;;;;;7.03;3.00;;;;;;;-144.30;46.02;84104.50;5109866;28;20686;-57
2023/06/06 04:13:10;;;;;;;3.55;3.17;;;;;;;-144.30;44.16;83995.22;5109676;28;20198;-57
2023/06/06 04:15:37;;;;;;;3.67;3.00;;;;;;;-144.30;43.04;83993.22;5109657;28;20190;-57
2023/06/06 04:18:04;;;;;;;4.47;3.13;;;;;;;-144.30;42.96;84001.19;5109537;28;20222;-58
2023/06/06 04:20:32;;;;;;;8.18;3.10;;;;;;;-144.30;44.04;84068.75;5109627;28;20579;-57
2023/06/06 04:23:01;;;;;;;3.22;2.70;;;;;;;-144.30;43.23;84009.13;5115248;28;20201;-57
2023/06/06 04:25:28;;;;;;;3.63;2.90;;;;;;;-144.30;41.67;83844.19;5123000;27;20529;-58
2023/06/06 04:27:55;;;;;;;7.25;3.22;;;;;;;-144.30;40.28;83748.81;5109542;28;20191;-57
2023/06/06 04:30:23;;;;;;;2.67;2.45;;;;;;;-144.30;39.71;83738.88;5111840;28;20195;-57
2023/06/06 04:32:52;;;;;;;4.13;2.55;;;;;;;-144.30;41.77;83949.50;5113665;28;20209;-56
2023/06/06 04:35:19;;;;;;;4.85;2.25;;;;;;;-144.30;41.41;83957.47;5113673;28;20225;-57
2023/06/06 04:37:47;;;;;;;6.78;2.35;;;;;;;-144.30;41.79;83913.75;5113402;28;20229;-58
2023/06/06 04:40:15;;;;;;;4.93;2.28;;;;;;;-144.30;41.05;83818.38;5113092;28;20194;-58
2023/06/06 04:42:42;;;;;;;4.22;2.20;;;;;;;-144.30;41.09;83903.81;5113391;28;20191;-58
2023/06/06 04:45:10;;;;;;;5.28;1.80;;;;;;;-144.30;40.14;83798.50;5129320;27;20653;-57
2023/06/06 04:47:40;;;;;;;4.70;2.45;;;;;;;-144.30;38.66;83655.44;5133109;27;20222;-58
2023/06/06 04:50:08;;;;;;;8.57;2.63;;;;;;;-144.30;38.32;83573.97;5133495;27;20634;-57
2023/06/06 04:52:35;;;;;;;7.82;2.80;;;;;;;-144.30;37.93;83564.03;5133409;27;20197;-58
2023/06/06 04:55:03;;;;;;;2.83;2.28;;;;;;;-144.30;38.78;83713.06;5133516;27;20293;-57
2023/06/06 04:57:32;;;;;;;4.93;2.33;;;;;;;-144.30;39.75;83802.47;5133542;27;20305;-57
2023/06/06 05:00:00;;;;;;;3.85;2.38;;;;;;;-144.30;39.69;83782.59;5115527;27;20289;-57
2023/06/06 05:02:28;;;;;;;6.25;2.53;;;;;;;-144.30;39.91;83846.19;5112820;28;20194;-57
2023/06/06 05:04:58;;;;;;;2.55;2.35;;;;;;;-144.30;39.77;83790.56;5113266;28;20198;-58
2023/06/06 05:07:25;;;;;;;6.93;2.78;;;;;;;-144.30;38.78;83577.94;5112421;28;20187;-59
2023/06/06 05:09:52;;;;;;;3.50;2.28;;;;;;;-144.30;37.58;83540.19;5112851;28;20191;-57
2023/06/06 05:12:19;;;;;;;6.38;2.45;;;;;;;-144.30;38.70;83665.38;5112828;28;20684;-57
2023/06/06 05:14:46;;;;;;;2.92;2.10;;;;;;;-144.30;38.06;83544.16;5112613;28;20202;-57
2023/06/06 05:17:14;;;;;;;4.82;2.08;;;;;;;-144.30;37.20;83512.38;5124691;27;20208;-57
2023/06/06 05:19:41;;;;;;;2.28;1.95;;;;;;;-144.30;36.94;83500.47;5133140;27;20198;-57
2023/06/06 05:22:10;;;;;;;4.00;2.33;;;;;;;-144.30;37.76;83591.84;5132859;27;20671;-57
2023/06/06 05:24:37;;;;;;;2.78;2.13;;;;;;;-144.30;37.76;83641.53;5133029;27;20196;-58
2023/06/06 05:27:05;;;;;;;10.43;3.15;;;;;;;-144.30;38.65;83667.34;5133100;27;20592;-57
2023/06/06 05:29:32;;;;;;;4.85;2.45;;;;;;;-144.30;38.85;84021.06;5132927;27;20197;-57
2023/06/06 05:31:59;;;;;;;3.97;2.65;;;;;;;-144.30;40.49;83874.00;5132945;27;20200;-58
2023/06/06 05:34:25;;;;;;;5.65;2.40;;;;;;;-144.30;40.16;83798.50;5132666;27;20200;-57
2023/06/06 05:36:52;;;;;;;3.80;2.63;;;;;;;-144.30;38.56;83613.72;5132923;27;20198;-57
2023/06/06 05:39:22;;;;;;;5.40;3.10;;;;;;;-144.30;37.67;83558.06;5132709;27;20224;-57
2023/06/06 05:41:50;;;;;;;2.80;1.95;;;;;;;-144.30;37.50;83522.31;5131237;27;20194;-57
2023/06/06 05:44:18;;;;;;;5.05;2.20;;;;;;;-144.30;38.76;83691.19;5132542;27;20198;-57
2023/06/06 05:46:47;;;;;;;4.68;2.33;;;;;;;-144.30;39.12;83806.44;5132536;27;20646;-57
2023/06/06 05:49:14;;;;;;;2.40;2.20;;;;;;;-144.30;39.99;83794.53;5132421;27;20198;-57
2023/06/06 05:51:41;;;;;;;6.15;2.20;;;;;;;-144.30;39.90;83724.97;5132613;27;20190;-58
2023/06/06 05:54:08;;;;;;;7.70;3.30;;;;;;;-144.30;38.76;83572.00;5132551;27;20646;-57
2023/06/06 05:56:36;;;;;;;7.40;2.75;;;;;;;-144.30;36.81;83371.31;5132375;27;20204;-57
2023/06/06 05:59:03;;;;;;;3.95;2.95;;;;;;;-144.30;36.21;83254.09;5132437;27;20229;-57
2023/06/06 06:01:30;;;;;;;5.20;2.78;;;;;;;-144.30;35.42;83154.75;5130709;27;20443;-58
2023/06/06 06:03:57;;;;;;;6.57;2.90;;;;;;;-144.30;35.26;83130.94;5132163;27;20198;-58
2023/06/06 06:06:25;;;;;;;5.95;3.70;;;;;;;-144.30;34.71;83087.22;5132408;27;20197;-59
2023/06/06 06:08:51;;;;;;;4.38;2.97;;;;;;;-144.30;34.93;83210.38;5132116;27;20190;-59
2023/06/06 06:11:19;;;;;;;4.72;2.35;;;;;;;-144.30;35.99;83339.53;5132026;27;20336;-59
2023/06/06 06:13:48;;;;;;;4.13;2.90;;;;;;;-144.30;36.73;83420.97;5131962;27;20198;-59
2023/06/06 06:16:15;;;;;;;3.78;3.17;;;;;;;-144.30;36.72;83405.09;5131848;27;20198;-59
2023/06/06 06:18:41;;;;;;;6.38;3.55;;;;;;;-144.30;36.55;83379.25;5131915;27;20224;-59
2023/06/06 06:21:08;;;;;;;8.15;2.65;;;;;;;-144.30;36.43;83331.59;5132029;27;20189;-59
2023/06/06 06:23:35;;;;;;;5.00;2.55;;;;;;;-144.30;36.67;83448.81;5131985;27;20204;-58
2023/06/06 06:26:02;;;;;;;3.65;2.15;;;;;;;-144.30;36.57;83333.56;5131901;27;20220;-58
2023/06/06 06:28:31;;;;;;;4.10;2.70;;;;;;;-144.30;37.40;83526.28;5132049;27;20240;-58
2023/06/06 06:31:00;;;;;;;10.75;3.75;;;;;;;-144.30;37.04;83462.72;5131816;27;20200;-57
2023/06/06 06:33:27;;;;;;;3.28;2.97;;;;;;;-144.30;36.68;83409.06;5132036;27;20196;-58
2023/06/06 06:35:54;;;;;;;7.80;2.63;;;;;;;-144.30;36.77;83351.44;5131815;27;20205;-57
2023/06/06 06:38:24;;;;;;;3.20;2.75;;;;;;;-144.30;36.06;83365.34;5131677;27;20706;-51
2023/06/06 06:40:51;;;;;;;9.68;2.58;;;;;;;-144.30;36.87;83536.22;5131781;27;20583;-52
2023/06/06 06:43:18;;;;;;;6.00;2.80;;;;;;;-144.30;37.55;83542.19;5131534;27;20205;-50
2023/06/06 06:45:45;;;;;;;9.10;2.80;;;;;;;-144.30;37.35;83500.47;5131636;27;20217;-50
2023/06/06 06:48:13;;;;;;;4.22;3.88;;;;;;;-144.30;36.64;83560.06;5129856;27;20607;-51
2023/06/06 06:50:40;;;;;;;7.28;3.33;;;;;;;-144.30;38.27;83734.91;5112182;27;20687;-50
2023/06/06 06:53:09;;;;;;;3.50;3.20;;;;;;;-144.30;38.83;83800.50;5110343;28;20539;-51
2023/06/06 06:55:37;;;;;;;2.80;2.35;;;;;;;-144.30;38.79;83782.59;5110727;27;20636;-51
2023/06/06 06:58:05;;;;;;;2.30;2.20;;;;;;;-144.30;38.57;83746.84;5110571;28;20238;-50
2023/06/06 07:00:33;;;;;;;3.20;2.75;;;;;;;-144.30;37.61;83705.09;5110664;28;20205;-51
2023/06/06 07:03:04;;;;;;;3.35;2.78;;;;;;;-144.30;37.14;83647.50;5110973;28;20622;-52
2023/06/06 07:05:32;;;;;;;6.03;3.05;;;;;;;-144.30;36.46;83591.84;5110732;28;20209;-58
2023/06/06 07:07:59;;;;;;;3.90;2.13;;;;;;;-144.30;35.19;83653.44;5110832;28;20289;-57
2023/06/06 07:10:29;;;;;;;3.92;2.80;;;;;;;-144.30;35.54;83679.28;5110455;28;20617;-57
2023/06/06 07:12:56;;;;;;;4.13;2.75;;;;;;;-144.30;35.71;83651.47;5110563;28;20201;-52
2023/06/06 07:15:23;;;;;;;5.55;2.20;;;;;;;-144.30;35.40;83597.81;5110537;28;20198;-51
2023/06/06 07:17:50;;;;;;;3.38;1.60;;;;;;;-144.30;34.89;83635.56;5110667;28;20586;-57
2023/06/06 07:20:18;;;;;;;5.45;2.45;;;;;;;-144.30;35.32;83609.75;5110558;28;20594;-57
2023/06/06 07:22:46;;;;;;;3.28;2.22;;;;;;;-144.30;35.80;83681.28;5110418;28;20209;-57
2023/06/06 07:25:13;;;;;;;4.57;1.90;;;;;;;-144.30;36.10;83744.84;5110842;28;20568;-51
2023/06/06 07:27:41;;;;;;;2.15;2.00;;;;;;;-144.30;37.32;83879.97;5110570;28;20198;-57
2023/06/06 07:30:13;;;;;;;5.20;2.28;;;;;;;-144.30;37.06;83842.22;5110474;28;20198;-50
2023/06/06 07:32:41;;;;;;;3.35;2.45;;;;;;;-144.30;36.65;83738.88;5110525;28;20591;-50
2023/06/06 07:35:10;;;;;;;3.90;1.70;;;;;;;-144.30;36.63;83836.25;5110254;28;20627;-50
2023/06/06 07:37:37;;;;;;;2.33;1.88;;;;;;;-144.30;36.52;83802.47;5110109;28;20194;-50
2023/06/06 07:40:08;;;;;;;2.72;1.75;;;;;;;-144.30;36.47;83756.78;5110489;28;20222;-49
2023/06/06 07:42:36;;;;;;;1.80;1.70;;;;;;;-144.30;36.28;83780.63;5110353;28;20194;-57
2023/06/06 07:45:03;;;;;;;5.25;2.13;;;;;;;-144.30;36.42;83736.91;5110267;28;20255;-50
2023/06/06 07:47:30;;;;;;;5.43;2.03;;;;;;;-144.30;36.73;83804.47;5110109;28;20723;-51
2023/06/06 07:49:57;;;;;;;3.10;2.03;;;;;;;-144.30;37.11;83703.13;5110156;28;20664;-50
2023/06/06 07:52:25;;;;;;;2.60;2.40;;;;;;;-144.30;37.17;83703.13;5110069;28;20221;-52
2023/06/06 07:54:52;;;;;;;2.53;1.95;;;;;;;-144.30;36.24;83528.28;5110076;28;20221;-50
2023/06/06 07:57:20;;;;;;;2.45;2.22;;;;;;;-144.30;35.76;83518.34;5110062;28;20194;-50
2023/06/06 07:59:47;;;;;;;4.10;1.77;;;;;;;-144.30;36.33;83633.59;5110366;28;20306;-51
2023/06/06 08:02:15;;;;;;;3.30;2.30;;;;;;;-144.30;36.58;83597.81;5109933;28;20256;-51
2023/06/06 08:04:45;;;;;;;4.30;2.35;;;;;;;-144.30;36.16;83579.94;5110689;28;20655;-51
2023/06/06 08:07:13;;;;;;;9.68;2.25;;;;;;;-144.30;35.25;83587.88;5114118;28;20198;-50
2023/06/06 08:09:41;;;;;;;3.25;2.40;;;;;;;-144.30;35.30;83591.84;5113975;28;20248;-50
2023/06/06 08:12:08;;;;;;;7.22;2.22;;;;;;;-144.30;35.43;83548.16;5113851;28;20286;-50
2023/06/06 08:14:36;;;;;;;5.22;2.72;;;;;;;-144.30;34.67;83470.66;5113981;28;20201;-50
2023/06/06 08:17:04;;;;;;;2.42;2.22;;;;;;;-144.30;34.57;83313.69;5114124;28;20204;-56
2023/06/06 08:19:31;;;;;;;4.72;2.33;;;;;;;-144.30;33.61;83107.09;5113798;28;20233;-56
2023/06/06 08:21:57;;;;;;;6.75;2.40;;;;;;;-144.30;33.26;83073.31;5114252;28;20900;-56
2023/06/06 08:24:24;;;;;;;5.05;2.00;;;;;;;-144.30;32.80;82987.88;5113634;28;20194;-56
2023/06/06 08:26:51;;;;;;;3.67;1.83;;;;;;;-144.30;32.12;82940.22;5113814;28;20247;-56
2023/06/06 08:29:18;;;;;;;2.90;2.47;;;;;;;-144.30;32.44;82987.88;5113634;28;20191;-57
2023/06/06 08:31:46;;;;;;;5.05;2.10;;;;;;;-144.30;33.07;83051.47;5113593;28;20198;-56
2023/06/06 08:34:14;;;;;;;3.00;2.03;;;;;;;-144.30;33.82;83186.56;5113747;28;20589;-57
2023/06/06 08:36:41;;;;;;;5.65;2.40;;;;;;;-144.30;34.38;83305.75;5113757;28;20208;-57
2023/06/06 08:39:08;;;;;;;3.05;1.95;;;;;;;-144.30;34.47;83341.50;5114022;28;20218;-56
2023/06/06 08:41:35;;;;;;;2.95;2.08;;;;;;;-144.30;34.48;83283.91;5113722;28;20195;-56
2023/06/06 08:44:03;;;;;;;3.97;2.00;;;;;;;-144.30;33.96;83242.19;5113387;28;20261;-56
2023/06/06 08:46:33;;;;;;;4.20;2.40;;;;;;;-144.30;33.43;83281.91;5113187;28;20245;-57
2023/06/06 08:49:04;;;;;;;3.63;2.33;;;;;;;-144.30;33.62;83365.34;5113427;28;20284;-57
2023/06/06 08:51:31;;;;;;;6.90;2.67;;;;;;;-144.30;34.73;83482.56;5113508;28;20239;-56
2023/06/06 08:54:00;;;;;;;13.57;2.50;;;;;;;-144.30;35.22;83570.00;5113225;28;20640;-57
2023/06/06 08:56:28;;;;;;;8.65;2.30;;;;;;;-144.30;35.01;83532.25;5113079;28;20198;-57
2023/06/06 08:58:55;;;;;;;4.30;1.88;;;;;;;-144.30;35.09;83474.63;5113061;27;20507;-50
2023/06/06 09:01:22;;;;;;;3.15;2.30;;;;;;;-144.30;35.34;83480.59;5113146;28;20717;-51
2023/06/06 09:03:52;;;;;;;3.25;2.17;;;;;;;-144.30;36.24;83659.41;5113269;28;20285;-49
2023/06/06 09:06:21;;;;;;;3.05;2.10;;;;;;;-144.30;36.65;83691.19;5112941;28;20194;-50
2023/06/06 09:08:49;;;;;;;3.58;2.08;;;;;;;-144.30;36.47;83681.28;5113260;28;20201;-51
2023/06/06 09:11:17;;;;;;;2.90;2.05;;;;;;;-144.30;36.80;83711.06;5112623;28;20198;-51
2023/06/06 09:13:45;;;;;;;2.33;2.00;;;;;;;-144.30;36.57;83724.97;5118718;27;20202;-51
2023/06/06 09:16:12;;;;;;;2.58;2.38;;;;;;;-144.30;36.86;83671.34;5133010;27;20225;-50
2023/06/06 09:18:39;;;;;;;2.15;2.05;;;;;;;-144.30;36.94;83593.84;5133505;27;20221;-51
2023/06/06 09:21:06;;;;;;;6.82;2.60;;;;;;;-144.30;35.67;83641.53;5133497;27;20230;-50
2023/06/06 09:23:35;;;;;;;3.75;2.30;;;;;;;-144.30;35.69;83643.50;5133101;27;20198;-51
2023/06/06 09:26:02;;;;;;;3.97;2.70;;;;;;;-144.30;35.40;83645.50;5133091;27;20289;-57
2023/06/06 09:28:39;;;;;;;5.00;2.83;;;;;;;-144.30;34.61;83701.13;5133020;27;20198;-51
2023/06/06 09:31:29;;;;;;;2.47;2.28;;;;;;;-144.30;34.74;83570.00;5133291;27;20286;-50
2023/06/06 09:33:58;;;;;;;3.17;2.13;;;;;;;-144.30;34.77;83653.44;5132982;27;20594;-50
2023/06/06 09:36:27;;;;;;;4.40;2.78;;;;;;;-144.30;33.64;83591.84;5132755;27;20194;-56
2023/06/06 09:38:56;;;;;;;5.72;2.70;;;;;;;-144.30;32.51;83564.03;5132823;27;20259;-56
2023/06/06 09:41:23;;;;;;;3.63;2.63;;;;;;;-144.30;32.15;83504.44;5132755;27;20212;-57
2023/06/06 09:43:50;;;;;;;4.00;2.17;;;;;;;-144.30;31.40;83544.16;5132735;27;20193;-57
2023/06/06 09:46:17;;;;;;;2.53;2.33;;;;;;;-144.30;31.66;83593.84;5131053;27;20218;-57
2023/06/06 09:48:54;;;;;;;4.53;2.55;;;;;;;-144.30;31.30;83623.66;5132415;27;20672;-57
2023/06/06 09:51:22;;;;;;;2.55;2.38;;;;;;;-144.30;31.45;83619.66;5117043;27;20209;-57
2023/06/06 09:53:51;;;;;;;2.78;2.58;;;;;;;-144.30;30.78;83581.91;5132570;27;20194;-57
2023/06/06 09:56:22;;;;;;;4.07;2.20;;;;;;;-144.30;30.81;83746.84;5132394;27;20198;-57
2023/06/06 09:58:54;;;;;;;2.47;2.35;;;;;;;-144.30;30.20;83723.00;5132357;27;20201;-57
2023/06/06 10:01:25;;;;;;;2.50;2.30;;;;;;;-144.30;30.23;83639.53;5132449;27;20202;-57
2023/06/06 10:03:54;;;;;;;2.20;2.00;;;;;;;-144.30;29.85;83699.16;5132771;27;20668;-57
2023/06/06 10:06:22;;;;;;;5.15;2.35;;;;;;;-144.30;30.62;83679.28;5132191;27;20205;-51
2023/06/06 10:08:49;;;;;;;2.20;2.00;;;;;;;-144.30;31.63;83687.22;5132204;27;20284;-51
2023/06/06 10:11:20;;;;;;;2.40;2.30;;;;;;;-144.30;31.63;83661.41;5132256;27;20289;-51
2023/06/06 10:13:50;;;;;;;4.82;2.47;;;;;;;-144.30;31.47;83740.88;5127124;27;20675;-56
2023/06/06 10:16:18;;;;;;;4.25;2.13;;;;;;;-144.30;30.79;83744.84;5131280;27;20594;-57
2023/06/06 10:18:47;;;;;;;3.40;2.42;;;;;;;-144.30;29.48;83719.03;5130295;27;20205;-58
2023/06/06 10:21:16;;;;;;;5.05;2.33;;;;;;;-144.30;31.45;83723.00;5131170;27;20201;-57
2023/06/06 10:23:43;;;;;;;3.92;2.20;;;;;;;-144.30;31.72;83826.31;5131587;27;20704;-51
2023/06/06 10:26:17;;;;;;;2.28;1.95;;;;;;;-144.30;30.96;83810.41;5131834;27;20216;-57
2023/06/06 10:28:57;;;;;;;4.70;2.55;;;;;;;-144.30;31.35;83792.53;5129112;27;20192;-58
2023/06/06 10:31:31;;;;;;;6.22;2.40;;;;;;;-144.30;31.69;83798.50;5129137;27;20680;-57
2023/06/06 10:34:01;;;;;;;7.13;2.47;;;;;;;-144.30;33.35;83810.41;5128082;27;20593;-57
2023/06/06 10:36:40;;;;;;;2.65;2.22;;;;;;;-144.30;33.89;83862.09;5130837;27;20186;-58
2023/06/06 10:39:22;;;;;;;3.03;2.10;;;;;;;-144.30;34.54;83905.81;5129683;27;20224;-57
2023/06/06 10:41:52;;;;;;;2.53;2.05;;;;;;;-144.30;33.07;83870.03;5131421;27;20194;-57
2023/06/06 10:44:27;;;;;;;2.88;2.47;;;;;;;-144.30;32.66;83834.25;5130876;27;20190;-57
2023/06/06 10:47:28;;;;;;;2.35;2.22;;;;;;;-144.30;32.36;83834.25;5130984;27;20213;-57
2023/06/06 10:50:17;;;;;;;4.28;2.20;;;;;;;-144.30;32.32;83834.25;5130148;27;20200;-57
2023/06/06 10:52:45;;;;;;;2.65;2.45;;;;;;;-144.30;32.16;83945.53;5128556;27;20205;-57
2023/06/06 10:55:16;;;;;;;5.82;2.35;;;;;;;-144.30;31.39;83893.88;5131135;27;20193;-57
2023/06/06 10:57:51;;;;;;;4.15;2.50;;;;;;;-144.30;29.42;83995.22;5131131;27;20328;-57
2023/06/06 11:00:23;;;;;;;4.00;2.30;;;;;;;-144.30;28.80;83961.44;5130103;27;20294;-57
2023/06/06 11:02:50;;;;;;;2.08;1.90;;;;;;;-144.30;29.70;83911.75;5130990;27;20194;-57
2023/06/06 11:05:18;;;;;;;5.68;2.50;;;;;;;-144.30;27.60;83935.59;5131355;27;20194;-57
2023/06/06 11:07:49;;;;;;;3.83;2.15;;;;;;;-144.30;28.06;83931.63;5131127;27;20280;-56
2023/06/06 11:10:21;;;;;;;5.53;2.15;;;;;;;-144.30;29.67;83901.81;5131183;27;20589;-57
2023/06/06 11:12:49;;;;;;;3.17;2.35;;;;;;;-144.30;30.63;83876.00;5131319;27;20200;-57
2023/06/06 11:15:28;;;;;;;2.92;2.05;;;;;;;-144.30;30.02;83905.81;5131219;27;20205;-56
2023/06/06 11:18:02;;;;;;;12.55;2.20;;;;;;;-144.30;29.20;83901.81;5131097;27;20201;-57
2023/06/06 11:20:30;;;;;;;4.15;2.05;;;;;;;-144.30;27.69;83913.75;5130625;27;20617;-57
2023/06/06 11:23:20;;;;;;;2.00;1.90;;;;;;;-144.30;28.20;83943.56;5131028;27;20202;-57